createdAt,value
2022-08-07T00:00:26.817Z,24.17
2022-08-07T00:02:57.013Z,24.19
2022-08-07T00:05:26.019Z,24.09
2022-08-07T00:08:00.102Z,24.11
2022-08-07T00:10:31.225Z,24.12
2022-08-07T00:13:17.362Z,24.14
2022-08-07T00:15:52.950Z,24.08
2022-08-07T00:18:24.049Z,24.08
2022-08-07T00:21:08.124Z,24.08
2022-08-07T00:23:51.754Z,24.01
2022-08-07T00:26:49.536Z,23.98
2022-08-07T00:29:06.212Z,23.94
2022-08-07T00:31:37.421Z,23.92
2022-08-07T00:34:08.846Z,23.84
2022-08-07T00:36:42.658Z,23.81
2022-08-07T00:39:17.103Z,23.76
2022-08-07T00:42:02.482Z,23.79
2022-08-07T00:44:41.282Z,23.80
2022-08-07T00:47:16.150Z,23.85
2022-08-07T00:50:20.546Z,23.85
2022-08-07T00:52:47.443Z,23.84
2022-08-07T00:55:17.526Z,23.84
2022-08-07T00:57:55.707Z,23.84
2022-08-07T01:00:23.933Z,23.83
2022-08-07T01:02:51.966Z,23.81
2022-08-07T01:05:20.980Z,23.80
2022-08-07T01:07:52.258Z,23.79
2022-08-07T01:10:20.934Z,23.85
2022-08-07T01:12:54.079Z,23.85
2022-08-07T01:15:35.765Z,23.87
2022-08-07T01:18:16.812Z,23.87
2022-08-07T01:21:05.709Z,23.88
2022-08-07T01:23:51.575Z,23.92
2022-08-07T01:26:21.018Z,23.88
2022-08-07T01:28:51.560Z,23.86
2022-08-07T01:31:41.837Z,23.88
2022-08-07T01:34:14.440Z,23.83
2022-08-07T01:36:44.226Z,23.82
2022-08-07T01:39:22.727Z,23.79
2022-08-07T01:42:39.014Z,23.75
2022-08-07T01:44:51.170Z,23.68
2022-08-07T01:48:18.954Z,23.77
2022-08-07T01:50:07.162Z,23.70
2022-08-07T01:52:39.269Z,23.64
2022-08-07T01:55:22.232Z,23.57
2022-08-07T01:58:06.195Z,23.53
2022-08-07T02:00:48.823Z,23.46
2022-08-07T02:03:21.672Z,23.41
2022-08-07T02:06:02.647Z,23.45
2022-08-07T02:08:54.374Z,23.36
2022-08-07T02:11:30.690Z,23.33
2022-08-07T02:14:35.476Z,23.29
2022-08-07T02:17:03.532Z,23.32
2022-08-07T02:20:04.109Z,23.25
2022-08-07T02:22:25.656Z,23.29
2022-08-07T02:24:56.460Z,23.27
2022-08-07T02:27:26.992Z,23.24
2022-08-07T02:30:07.111Z,23.25
2022-08-07T02:32:39.527Z,23.24
2022-08-07T02:36:30.487Z,23.38
2022-08-07T02:38:16.245Z,23.42
2022-08-07T02:40:46.647Z,23.41
2022-08-07T02:43:16.958Z,23.41
2022-08-07T02:45:58.231Z,23.44
2022-08-07T02:48:30.719Z,23.43
2022-08-07T02:51:03.430Z,23.38
2022-08-07T02:53:38.438Z,23.36
2022-08-07T02:56:21.104Z,23.37
2022-08-07T02:58:54.065Z,23.47
2022-08-07T03:01:36.304Z,23.45
2022-08-07T03:04:13.835Z,23.47
2022-08-07T03:06:46.098Z,23.33
2022-08-07T03:09:43.838Z,23.35
2022-08-07T03:12:19.181Z,23.38
2022-08-07T03:14:56.608Z,23.32
2022-08-07T03:17:24.581Z,23.28
2022-08-07T03:19:55.529Z,23.32
2022-08-07T03:22:29.507Z,23.27
2022-08-07T03:25:00.484Z,23.23
2022-08-07T03:27:42.184Z,23.27
2022-08-07T03:30:24.374Z,23.31
2022-08-07T03:32:58.891Z,23.32
2022-08-07T03:35:44.025Z,23.40
2022-08-07T03:38:20.963Z,23.39
2022-08-07T03:40:53.936Z,23.40
2022-08-07T03:43:32.494Z,23.46
2022-08-07T03:46:10.476Z,23.48
2022-08-07T03:49:02.845Z,23.48
2022-08-07T03:51:47.227Z,23.56
2022-08-07T03:54:35.336Z,23.65
2022-08-07T03:57:08.685Z,23.90
2022-08-07T03:59:46.740Z,24.05
2022-08-07T04:02:28.400Z,24.18
2022-08-07T04:04:57.091Z,24.22
2022-08-07T04:07:25.275Z,24.28
2022-08-07T04:10:04.328Z,24.38
2022-08-07T04:12:35.273Z,24.51
2022-08-07T04:15:05.011Z,24.58
2022-08-07T04:18:31.917Z,24.56
2022-08-07T04:20:25.379Z,24.54
2022-08-07T04:23:01.353Z,24.58
2022-08-07T04:25:39.366Z,24.71
2022-08-07T04:28:13.256Z,24.75
2022-08-07T04:30:51.259Z,24.76
2022-08-07T04:33:29.051Z,24.77
2022-08-07T04:35:59.004Z,24.76
2022-08-07T04:38:29.246Z,24.85
2022-08-07T04:40:58.059Z,24.93
2022-08-07T04:44:12.715Z,25.13
2022-08-07T04:47:04.155Z,24.99
2022-08-07T04:49:57.987Z,25.07
2022-08-07T04:52:52.041Z,25.22
2022-08-07T04:58:10.760Z,25.30
2022-08-07T04:58:42.419Z,25.43
2022-08-07T05:01:46.786Z,25.57
2022-08-07T05:04:36.448Z,25.67
2022-08-07T05:07:20.380Z,25.80
2022-08-07T05:09:51.392Z,25.92
2022-08-07T05:12:30.481Z,25.90
2022-08-07T05:15:23.423Z,26.09
2022-08-07T05:18:10.525Z,26.18
2022-08-07T05:20:45.254Z,26.17
2022-08-07T05:23:38.664Z,26.25
2022-08-07T05:26:18.905Z,26.36
2022-08-07T05:28:59.308Z,26.40
2022-08-07T05:31:38.742Z,26.50
2022-08-07T05:34:15.832Z,26.59
2022-08-07T05:36:53.982Z,26.66
2022-08-07T05:40:05.689Z,26.64
2022-08-07T05:42:34.947Z,26.79
2022-08-07T05:45:25.987Z,26.77
2022-08-07T05:48:05.500Z,26.89
2022-08-07T05:50:42.910Z,26.96
2022-08-07T05:54:12.866Z,27.02
2022-08-07T05:56:05.971Z,27.00
2022-08-07T05:58:40.756Z,27.10
2022-08-07T06:01:20.294Z,27.13
2022-08-07T06:03:58.653Z,27.17
2022-08-07T06:06:36.610Z,27.21
2022-08-07T06:09:08.240Z,27.26
2022-08-07T06:11:39.917Z,27.24
2022-08-07T06:14:12.788Z,27.26
2022-08-07T06:16:56.372Z,27.36
2022-08-07T06:19:47.904Z,27.37
2022-08-07T06:22:24.062Z,27.41
2022-08-07T06:25:14.993Z,27.34
2022-08-07T06:27:59.798Z,27.36
2022-08-07T06:30:35.710Z,27.43
2022-08-07T06:33:16.870Z,27.49
2022-08-07T06:36:12.946Z,27.53
2022-08-07T06:38:58.357Z,27.64
2022-08-07T06:42:00.815Z,27.74
2022-08-07T06:44:24.244Z,27.75
2022-08-07T06:46:53.794Z,27.78
2022-08-07T06:49:52.172Z,27.89
2022-08-07T06:52:35.778Z,27.99
2022-08-07T06:55:32.990Z,28.08
2022-08-07T06:58:10.506Z,28.11
2022-08-07T07:00:57.441Z,28.17
2022-08-07T07:03:39.923Z,28.25
2022-08-07T07:06:13.040Z,28.25
2022-08-07T07:08:46.722Z,28.28
2022-08-07T07:12:08.358Z,28.37
2022-08-07T07:14:08.423Z,28.47
2022-08-07T07:16:49.935Z,28.47
2022-08-07T07:19:55.204Z,28.65
2022-08-07T07:22:34.036Z,28.70
2022-08-07T07:26:30.449Z,28.73
2022-08-07T07:28:29.861Z,28.84
2022-08-07T07:31:11.184Z,28.98
2022-08-07T07:33:49.074Z,28.98
2022-08-07T07:36:32.207Z,28.94
2022-08-07T07:39:02.994Z,29.00
2022-08-07T07:42:02.237Z,29.01
2022-08-07T07:44:26.574Z,29.11
2022-08-07T07:47:04.413Z,29.13
2022-08-07T07:50:32.445Z,29.18
2022-08-07T07:52:32.967Z,29.26
2022-08-07T07:55:03.473Z,29.32
2022-08-07T07:57:51.683Z,29.42
2022-08-07T08:00:29.178Z,29.46
2022-08-07T08:03:06.093Z,29.51
2022-08-07T08:05:51.135Z,29.55
2022-08-07T08:08:35.058Z,29.65
2022-08-07T08:11:08.636Z,29.73
2022-08-07T08:13:54.483Z,29.77
2022-08-07T08:16:50.601Z,29.85
2022-08-07T08:20:18.552Z,29.81
2022-08-07T08:22:32.971Z,29.82
2022-08-07T08:25:41.769Z,29.85
2022-08-07T08:28:16.902Z,29.98
2022-08-07T08:31:05.213Z,30.03
2022-08-07T08:33:35.471Z,29.97
2022-08-07T08:36:10.811Z,29.98
2022-08-07T08:38:41.796Z,30.17
2022-08-07T08:41:23.141Z,30.17
2022-08-07T08:44:08.276Z,30.25
2022-08-07T08:46:44.926Z,30.28
2022-08-07T08:49:46.853Z,30.41
2022-08-07T08:52:32.143Z,30.45
2022-08-07T08:55:07.940Z,30.46
2022-08-07T08:57:42.411Z,30.48
2022-08-07T09:00:14.082Z,30.55
2022-08-07T09:03:07.561Z,30.63
2022-08-07T09:05:38.848Z,30.75
2022-08-07T09:08:37.574Z,30.82
2022-08-07T09:11:43.783Z,30.84
2022-08-07T09:14:37.631Z,30.92
2022-08-07T09:17:21.035Z,30.91
2022-08-07T09:20:35.306Z,30.99
2022-08-07T09:24:31.834Z,31.20
2022-08-07T09:26:04.577Z,31.29
2022-08-07T09:30:00.559Z,31.25
2022-08-07T09:31:57.124Z,31.26
2022-08-07T09:34:32.963Z,31.19
2022-08-07T09:37:33.658Z,31.23
2022-08-07T09:40:13.084Z,31.33
2022-08-07T09:44:03.685Z,31.42
2022-08-07T09:47:49.518Z,31.39
2022-08-07T09:50:01.670Z,31.45
2022-08-07T09:52:34.427Z,31.52
2022-08-07T09:56:03.380Z,31.66
2022-08-07T09:58:56.198Z,31.78
2022-08-07T10:02:01.672Z,31.89
2022-08-07T10:04:46.025Z,31.78
2022-08-07T10:07:58.182Z,31.89
2022-08-07T10:11:59.859Z,31.93
2022-08-07T10:14:00.534Z,31.92
2022-08-07T10:17:14.208Z,32.03
2022-08-07T10:19:53.006Z,32.14
2022-08-07T10:22:51.169Z,32.17
2022-08-07T10:25:43.077Z,32.27
2022-08-07T10:28:23.760Z,32.38
2022-08-07T10:31:18.126Z,32.40
2022-08-07T10:34:14.624Z,32.48
2022-08-07T10:36:54.109Z,32.48
2022-08-07T10:40:05.543Z,32.51
2022-08-07T10:42:52.775Z,32.54
2022-08-07T10:45:57.472Z,32.61
2022-08-07T10:48:23.888Z,32.53
2022-08-07T10:51:16.837Z,32.53
2022-08-07T10:54:10.878Z,32.46
2022-08-07T10:56:49.689Z,32.56
2022-08-07T10:59:37.791Z,32.61
2022-08-07T11:02:33.279Z,32.64
2022-08-07T11:05:05.325Z,32.68
2022-08-07T11:08:00.366Z,32.81
2022-08-07T11:10:57.868Z,32.88
2022-08-07T11:14:46.452Z,32.90
2022-08-07T11:16:34.264Z,32.89
2022-08-07T11:19:27.194Z,32.92
2022-08-07T11:22:03.260Z,32.94
2022-08-07T11:24:53.742Z,33.10
2022-08-07T11:28:02.960Z,33.13
2022-08-07T11:30:41.623Z,33.03
2022-08-07T11:33:54.372Z,33.01
2022-08-07T11:36:41.030Z,32.93
2022-08-07T11:39:59.455Z,32.88
2022-08-07T11:42:44.236Z,32.82
2022-08-07T11:45:35.794Z,32.95
2022-08-07T11:48:29.997Z,33.00
2022-08-07T11:51:10.256Z,33.06
2022-08-07T11:54:31.839Z,33.12
2022-08-07T11:57:59.575Z,33.23
2022-08-07T12:01:04.227Z,33.28
2022-08-07T12:03:57.374Z,33.25
2022-08-07T12:06:57.287Z,33.33
2022-08-07T12:09:43.180Z,33.46
2022-08-07T12:12:31.454Z,33.58
2022-08-07T12:15:08.087Z,33.60
2022-08-07T12:18:08.018Z,33.50
2022-08-07T12:20:49.387Z,33.47
2022-08-07T12:24:06.403Z,33.45
2022-08-07T12:26:47.381Z,33.27
2022-08-07T12:29:40.390Z,33.11
2022-08-07T12:32:33.076Z,32.80
2022-08-07T12:35:07.276Z,32.61
2022-08-07T12:38:09.853Z,32.46
2022-08-07T12:40:47.667Z,32.34
2022-08-07T12:44:03.357Z,32.50
2022-08-07T12:46:33.475Z,32.56
2022-08-07T12:49:39.419Z,32.64
2022-08-07T12:52:19.212Z,32.70
2022-08-07T12:55:05.108Z,32.67
2022-08-07T12:57:59.134Z,32.63
2022-08-07T13:00:50.693Z,32.67
2022-08-07T13:03:59.316Z,32.64
2022-08-07T13:06:31.493Z,32.72
2022-08-07T13:10:10.137Z,32.79
2022-08-07T13:12:29.254Z,32.84
2022-08-07T13:15:23.438Z,32.78
2022-08-07T13:18:26.771Z,32.87
2022-08-07T13:21:51.099Z,32.87
2022-08-07T13:24:29.448Z,32.86
2022-08-07T13:27:10.587Z,32.83
2022-08-07T13:30:03.565Z,32.78
2022-08-07T13:32:37.597Z,32.83
2022-08-07T13:36:00.467Z,32.81
2022-08-07T13:38:54.747Z,32.77
2022-08-07T13:41:47.501Z,32.78
2022-08-07T13:44:26.012Z,32.74
2022-08-07T13:46:59.969Z,32.74
2022-08-07T13:50:32.658Z,32.89
2022-08-07T13:52:32.397Z,32.78
2022-08-07T13:55:19.307Z,32.78
2022-08-07T13:58:28.086Z,32.83
2022-08-07T14:01:09.129Z,32.82
2022-08-07T14:04:05.411Z,32.85
2022-08-07T14:06:34.739Z,32.90
2022-08-07T14:09:05.021Z,32.91
2022-08-07T14:11:53.780Z,32.93
2022-08-07T14:14:42.000Z,32.97
2022-08-07T14:18:12.334Z,32.88
2022-08-07T14:20:41.830Z,32.83
2022-08-07T14:23:17.963Z,32.82
2022-08-07T14:26:05.758Z,32.71
2022-08-07T14:28:57.494Z,32.70
2022-08-07T14:31:42.752Z,32.74
2022-08-07T14:34:19.923Z,32.75
2022-08-07T14:36:56.245Z,32.79
2022-08-07T14:40:15.606Z,32.75
2022-08-07T14:42:18.505Z,32.64
2022-08-07T14:44:54.032Z,32.65
2022-08-07T14:47:33.770Z,32.67
2022-08-07T14:50:11.282Z,32.65
2022-08-07T14:52:41.865Z,32.64
2022-08-07T14:55:12.531Z,32.62
2022-08-07T14:57:58.683Z,32.66
2022-08-07T15:00:38.564Z,32.63
2022-08-07T15:03:19.146Z,32.63
2022-08-07T15:08:54.724Z,32.62
2022-08-07T15:11:53.849Z,32.56
2022-08-07T15:17:20.126Z,32.53
2022-08-07T15:20:32.758Z,32.48
2022-08-07T15:22:53.593Z,32.52
2022-08-07T15:25:36.851Z,32.51
2022-08-07T15:28:36.467Z,32.47
2022-08-07T15:34:02.685Z,32.43
2022-08-07T15:37:04.087Z,32.39
2022-08-07T15:39:24.503Z,32.35
2022-08-07T15:42:43.440Z,32.33
2022-08-07T15:44:53.693Z,32.23
2022-08-07T15:48:00.845Z,32.26
2022-08-07T15:53:15.424Z,32.22
2022-08-07T15:56:01.818Z,32.23
2022-08-07T15:58:38.790Z,32.20
2022-08-07T16:01:13.884Z,32.20
2022-08-07T16:03:55.696Z,32.17
2022-08-07T16:06:37.220Z,32.16
2022-08-07T16:09:12.927Z,32.09
2022-08-07T16:12:13.916Z,32.15
2022-08-07T16:15:09.029Z,32.11
2022-08-07T16:18:08.307Z,32.05
2022-08-07T16:20:55.242Z,32.02
2022-08-07T16:24:33.751Z,32.03
2022-08-07T16:27:18.031Z,31.99
2022-08-07T16:30:29.530Z,31.95
2022-08-07T16:34:01.626Z,31.82
2022-08-07T16:36:31.185Z,31.81
2022-08-07T16:39:00.832Z,31.72
2022-08-07T16:41:48.705Z,31.67
2022-08-07T16:45:24.550Z,31.64
2022-08-07T16:47:56.497Z,31.58
2022-08-07T16:51:13.508Z,31.51
2022-08-07T16:54:10.764Z,31.51
2022-08-07T16:56:45.625Z,31.43
2022-08-07T16:59:46.820Z,31.41
2022-08-07T17:02:50.879Z,31.37
2022-08-07T17:06:19.572Z,31.34
2022-08-07T17:09:15.860Z,31.30
2022-08-07T17:12:35.841Z,31.23
2022-08-07T17:15:13.089Z,31.29
2022-08-07T17:17:52.752Z,31.02
2022-08-07T17:20:29.731Z,31.10
2022-08-07T17:23:32.325Z,31.09
2022-08-07T17:26:29.962Z,30.98
2022-08-07T17:28:58.632Z,30.91
2022-08-07T17:31:44.319Z,30.83
2022-08-07T17:34:57.131Z,30.72
2022-08-07T17:38:06.802Z,30.78
2022-08-07T17:40:50.593Z,30.67
2022-08-07T17:44:00.892Z,30.58
2022-08-07T17:46:36.547Z,30.60
2022-08-07T17:49:22.839Z,30.56
2022-08-07T17:52:30.923Z,30.53
2022-08-07T17:55:16.484Z,30.47
2022-08-07T17:58:30.271Z,30.28
2022-08-07T18:01:03.099Z,30.32
2022-08-07T18:04:07.636Z,30.23
2022-08-07T18:06:43.047Z,30.18
2022-08-07T18:10:04.503Z,30.17
2022-08-07T18:12:30.492Z,30.11
2022-08-07T18:15:18.866Z,30.12
2022-08-07T18:18:46.695Z,30.06
2022-08-07T18:21:10.964Z,29.97
2022-08-07T18:24:02.052Z,30.00
2022-08-07T18:26:55.188Z,29.92
2022-08-07T18:30:06.736Z,29.93
2022-08-07T18:33:12.025Z,29.94
2022-08-07T18:36:03.685Z,29.91
2022-08-07T18:38:57.673Z,29.90
2022-08-07T18:42:05.898Z,29.94
2022-08-07T18:45:39.850Z,29.95
2022-08-07T18:48:01.021Z,29.78
2022-08-07T18:50:45.908Z,29.73
2022-08-07T18:53:41.607Z,29.67
2022-08-07T18:56:21.196Z,29.57
2022-08-07T18:59:47.563Z,29.50
2022-08-07T19:02:42.006Z,29.37
2022-08-07T19:06:02.151Z,29.36
2022-08-07T19:08:31.078Z,29.01
2022-08-07T19:11:34.797Z,28.93
2022-08-07T19:14:39.099Z,28.90
2022-08-07T19:17:57.165Z,28.74
2022-08-07T19:20:29.032Z,28.64
2022-08-07T19:23:57.128Z,28.47
2022-08-07T19:26:25.067Z,28.46
2022-08-07T19:31:03.997Z,28.34
2022-08-07T19:32:18.789Z,28.38
2022-08-07T19:34:51.298Z,28.31
2022-08-07T19:37:22.366Z,28.28
2022-08-07T19:40:02.247Z,28.14
2022-08-07T19:42:40.132Z,28.19
2022-08-07T19:45:13.588Z,28.10
2022-08-07T19:48:01.574Z,27.93
2022-08-07T19:50:45.311Z,28.03
2022-08-07T19:54:31.491Z,28.00
2022-08-07T19:56:15.169Z,27.93
2022-08-07T19:58:57.653Z,27.92
2022-08-07T20:01:43.726Z,27.92
2022-08-07T20:04:31.478Z,27.94
2022-08-07T20:07:09.364Z,27.88
2022-08-07T20:10:36.033Z,27.94
2022-08-07T20:12:40.777Z,27.92
2022-08-07T20:15:22.026Z,27.94
2022-08-07T20:18:01.593Z,27.89
2022-08-07T20:20:32.952Z,27.85
2022-08-07T20:23:22.978Z,27.90
2022-08-07T20:25:53.525Z,27.81
2022-08-07T20:28:20.990Z,27.70
2022-08-07T20:30:59.310Z,27.66
2022-08-07T20:33:37.621Z,27.61
2022-08-07T20:36:08.989Z,27.57
2022-08-07T20:38:59.316Z,27.54
2022-08-07T20:41:33.980Z,27.49
2022-08-07T20:44:12.674Z,27.45
2022-08-07T20:46:43.700Z,27.37
2022-08-07T20:49:59.424Z,27.36
2022-08-07T20:52:13.819Z,27.26
2022-08-07T20:54:53.292Z,27.20
2022-08-07T20:57:25.707Z,27.17
2022-08-07T21:00:08.064Z,27.23
2022-08-07T21:03:00.970Z,27.07
2022-08-07T21:05:50.900Z,26.98
2022-08-07T21:08:46.862Z,27.02
2022-08-07T21:11:22.130Z,26.99
2022-08-07T21:14:29.518Z,26.88
2022-08-07T21:16:56.977Z,26.86
2022-08-07T21:19:51.453Z,26.92
2022-08-07T21:22:28.209Z,26.76
2022-08-07T21:25:56.329Z,26.91
2022-08-07T21:28:56.288Z,26.86
2022-08-07T21:32:42.554Z,26.86
2022-08-07T21:34:48.184Z,26.83
2022-08-07T21:37:24.196Z,26.80
2022-08-07T21:40:06.659Z,26.75
2022-08-07T21:42:51.276Z,26.80
2022-08-07T21:46:07.573Z,26.82
2022-08-07T21:48:48.248Z,26.84
2022-08-07T21:51:27.525Z,26.82
2022-08-07T21:54:13.056Z,26.87
2022-08-07T21:57:00.316Z,26.90
2022-08-07T22:00:02.844Z,26.93
2022-08-07T22:02:41.520Z,26.99
2022-08-07T22:05:44.556Z,26.98
2022-08-07T22:08:10.260Z,26.94
2022-08-07T22:10:38.663Z,26.98
2022-08-07T22:13:14.448Z,26.97
2022-08-07T22:16:43.622Z,26.98
2022-08-07T22:19:00.978Z,27.03
2022-08-07T22:22:02.628Z,27.00
2022-08-07T22:24:36.179Z,26.95
2022-08-07T22:27:18.787Z,26.96
2022-08-07T22:30:03.461Z,26.98
2022-08-07T22:32:42.278Z,26.96
2022-08-07T22:35:12.045Z,26.88
2022-08-07T22:38:05.397Z,26.95
2022-08-07T22:40:44.990Z,26.91
2022-08-07T22:43:18.216Z,26.92
2022-08-07T22:47:02.462Z,26.96
2022-08-07T22:49:42.846Z,26.99
2022-08-07T22:52:50.028Z,26.94
2022-08-07T22:55:43.191Z,26.90
2022-08-07T22:58:55.465Z,26.95
2022-08-07T23:01:50.864Z,26.91
2022-08-07T23:04:57.050Z,26.88
2022-08-07T23:07:52.611Z,26.88
2022-08-07T23:10:57.594Z,26.87
2022-08-07T23:13:48.956Z,26.79
2022-08-07T23:16:44.518Z,26.76
2022-08-07T23:19:57.767Z,26.79
2022-08-07T23:22:52.282Z,26.78
2022-08-07T23:25:57.919Z,26.76
2022-08-07T23:28:33.988Z,26.72
2022-08-07T23:32:50.113Z,26.72
2022-08-07T23:34:41.750Z,26.68
2022-08-07T23:37:32.830Z,26.66
2022-08-07T23:40:13.029Z,26.69
2022-08-07T23:43:16.464Z,26.69
2022-08-07T23:46:01.875Z,26.56
2022-08-07T23:48:34.643Z,26.48
2022-08-07T23:53:01.446Z,26.37
2022-08-07T23:54:44.096Z,26.20
2022-08-07T23:57:27.561Z,26.09
